sensor_id;sensor_type;location;lat;lon;timestamp;temperature;humidity
74940;HTU21D;63505;45.226;37.908;2023-05-09T00:00:16;9.62;88.49
74940;HTU21D;63505;45.226;37.908;2023-05-09T00:02:43;9.62;88.50
74940;HTU21D;63505;45.226;37.908;2023-05-09T00:05:10;9.60;88.47
74940;HTU21D;63505;45.226;37.908;2023-05-09T00:07:36;9.61;88.47
74940;HTU21D;63505;45.226;37.908;2023-05-09T00:10:03;9.59;88.44
74940;HTU21D;63505;45.226;37.908;2023-05-09T00:12:29;9.60;88.44
74940;HTU21D;63505;45.226;37.908;2023-05-09T00:14:55;9.59;88.41
74940;HTU21D;63505;45.226;37.908;2023-05-09T00:17:23;9.55;88.38
74940;HTU21D;63505;45.226;37.908;2023-05-09T00:19:49;9.53;88.42
74940;HTU21D;63505;45.226;37.908;2023-05-09T00:22:16;9.53;88.40
74940;HTU21D;63505;45.226;37.908;2023-05-09T00:24:43;9.52;88.42
74940;HTU21D;63505;45.226;37.908;2023-05-09T00:27:08;9.52;88.38
74940;HTU21D;63505;45.226;37.908;2023-05-09T00:29:35;9.51;88.38
74940;HTU21D;63505;45.226;37.908;2023-05-09T00:32:01;9.49;88.40
74940;HTU21D;63505;45.226;37.908;2023-05-09T00:34:27;9.48;88.38
74940;HTU21D;63505;45.226;37.908;2023-05-09T00:36:53;9.45;88.41
74940;HTU21D;63505;45.226;37.908;2023-05-09T00:39:19;9.45;88.44
74940;HTU21D;63505;45.226;37.908;2023-05-09T00:41:45;9.44;88.47
74940;HTU21D;63505;45.226;37.908;2023-05-09T00:44:11;9.41;88.51
74940;HTU21D;63505;45.226;37.908;2023-05-09T00:46:37;9.41;88.57
74940;HTU21D;63505;45.226;37.908;2023-05-09T00:49:04;9.40;88.57
74940;HTU21D;63505;45.226;37.908;2023-05-09T00:51:31;9.39;88.60
74940;HTU21D;63505;45.226;37.908;2023-05-09T00:53:57;9.39;88.60
74940;HTU21D;63505;45.226;37.908;2023-05-09T00:56:24;9.41;88.64
74940;HTU21D;63505;45.226;37.908;2023-05-09T00:58:50;9.42;88.62
74940;HTU21D;63505;45.226;37.908;2023-05-09T01:01:16;9.42;88.58
74940;HTU21D;63505;45.226;37.908;2023-05-09T01:03:42;9.42;88.57
74940;HTU21D;63505;45.226;37.908;2023-05-09T01:06:47;9.42;88.52
74940;HTU21D;63505;45.226;37.908;2023-05-09T01:09:23;9.40;88.51
74940;HTU21D;63505;45.226;37.908;2023-05-09T01:12:13;9.38;88.51
74940;HTU21D;63505;45.226;37.908;2023-05-09T01:31:50;9.18;88.85
74940;HTU21D;63505;45.226;37.908;2023-05-09T01:34:17;9.15;88.92
74940;HTU21D;63505;45.226;37.908;2023-05-09T01:36:45;9.15;88.99
74940;HTU21D;63505;45.226;37.908;2023-05-09T01:39:16;9.14;89.04
74940;HTU21D;63505;45.226;37.908;2023-05-09T01:41:42;9.12;89.08
74940;HTU21D;63505;45.226;37.908;2023-05-09T01:44:10;9.14;89.09
74940;HTU21D;63505;45.226;37.908;2023-05-09T01:46:37;9.16;89.09
74940;HTU21D;63505;45.226;37.908;2023-05-09T01:49:04;9.17;89.06
74940;HTU21D;63505;45.226;37.908;2023-05-09T01:51:32;9.19;89.02
74940;HTU21D;63505;45.226;37.908;2023-05-09T01:54:00;9.18;88.99
74940;HTU21D;63505;45.226;37.908;2023-05-09T01:56:26;9.16;88.94
74940;HTU21D;63505;45.226;37.908;2023-05-09T01:58:54;9.11;89.00
74940;HTU21D;63505;45.226;37.908;2023-05-09T02:01:22;9.08;89.06
74940;HTU21D;63505;45.226;37.908;2023-05-09T02:03:50;9.06;89.13
74940;HTU21D;63505;45.226;37.908;2023-05-09T02:06:21;9.05;89.22
74940;HTU21D;63505;45.226;37.908;2023-05-09T02:08:48;9.05;89.22
74940;HTU21D;63505;45.226;37.908;2023-05-09T02:11:14;9.05;89.25
74940;HTU21D;63505;45.226;37.908;2023-05-09T02:13:40;9.07;89.20
74940;HTU21D;63505;45.226;37.908;2023-05-09T02:16:06;9.05;89.20
74940;HTU21D;63505;45.226;37.908;2023-05-09T02:18:35;9.04;89.16
74940;HTU21D;63505;45.226;37.908;2023-05-09T02:21:01;9.01;89.21
74940;HTU21D;63505;45.226;37.908;2023-05-09T02:23:27;8.97;89.25
74940;HTU21D;63505;45.226;37.908;2023-05-09T02:25:53;8.96;89.31
74940;HTU21D;63505;45.226;37.908;2023-05-09T02:28:22;8.94;89.34
74940;HTU21D;63505;45.226;37.908;2023-05-09T02:30:48;8.94;89.33
74940;HTU21D;63505;45.226;37.908;2023-05-09T02:33:15;8.91;89.38
74940;HTU21D;63505;45.226;37.908;2023-05-09T02:35:44;8.90;89.45
74940;HTU21D;63505;45.226;37.908;2023-05-09T02:38:12;8.90;89.48
74940;HTU21D;63505;45.226;37.908;2023-05-09T02:40:38;8.89;89.48
74940;HTU21D;63505;45.226;37.908;2023-05-09T02:43:06;8.88;89.51
74940;HTU21D;63505;45.226;37.908;2023-05-09T02:45:33;8.86;89.54
74940;HTU21D;63505;45.226;37.908;2023-05-09T02:47:58;8.86;89.57
74940;HTU21D;63505;45.226;37.908;2023-05-09T02:50:25;8.85;89.56
74940;HTU21D;63505;45.226;37.908;2023-05-09T02:52:51;8.86;89.58
74940;HTU21D;63505;45.226;37.908;2023-05-09T02:55:17;8.83;89.57
74940;HTU21D;63505;45.226;37.908;2023-05-09T02:57:43;8.87;89.61
74940;HTU21D;63505;45.226;37.908;2023-05-09T03:00:09;8.88;89.59
74940;HTU21D;63505;45.226;37.908;2023-05-09T03:02:36;8.90;89.54
74940;HTU21D;63505;45.226;37.908;2023-05-09T03:05:03;8.92;89.50
74940;HTU21D;63505;45.226;37.908;2023-05-09T03:07:29;8.94;89.47
74940;HTU21D;63505;45.226;37.908;2023-05-09T03:09:56;8.96;89.41
74940;HTU21D;63505;45.226;37.908;2023-05-09T03:12:22;8.97;89.36
74940;HTU21D;63505;45.226;37.908;2023-05-09T03:14:51;8.96;89.35
74940;HTU21D;63505;45.226;37.908;2023-05-09T03:17:17;8.98;89.32
74940;HTU21D;63505;45.226;37.908;2023-05-09T03:19:47;9.01;89.28
74940;HTU21D;63505;45.226;37.908;2023-05-09T03:22:13;9.02;89.27
74940;HTU21D;63505;45.226;37.908;2023-05-09T03:24:46;9.03;89.25
74940;HTU21D;63505;45.226;37.908;2023-05-09T03:27:12;9.02;89.22
74940;HTU21D;63505;45.226;37.908;2023-05-09T03:29:38;9.03;89.22
74940;HTU21D;63505;45.226;37.908;2023-05-09T03:32:04;9.05;89.25
74940;HTU21D;63505;45.226;37.908;2023-05-09T03:34:30;9.05;89.28
74940;HTU21D;63505;45.226;37.908;2023-05-09T03:36:57;9.06;89.26
74940;HTU21D;63505;45.226;37.908;2023-05-09T03:39:23;9.04;89.28
74940;HTU21D;63505;45.226;37.908;2023-05-09T03:41:54;9.02;89.33
74940;HTU21D;63505;45.226;37.908;2023-05-09T03:44:21;9.02;89.39
74940;HTU21D;63505;45.226;37.908;2023-05-09T03:46:47;9.01;89.42
74940;HTU21D;63505;45.226;37.908;2023-05-09T03:49:13;9.00;89.46
74940;HTU21D;63505;45.226;37.908;2023-05-09T03:51:39;9.02;89.50
74940;HTU21D;63505;45.226;37.908;2023-05-09T03:54:09;9.02;89.49
74940;HTU21D;63505;45.226;37.908;2023-05-09T03:56:35;9.01;89.50
74940;HTU21D;63505;45.226;37.908;2023-05-09T03:59:01;9.02;89.56
74940;HTU21D;63505;45.226;37.908;2023-05-09T04:01:27;9.07;89.57
74940;HTU21D;63505;45.226;37.908;2023-05-09T04:03:56;9.08;89.56
74940;HTU21D;63505;45.226;37.908;2023-05-09T04:06:23;9.09;89.50
74940;HTU21D;63505;45.226;37.908;2023-05-09T04:08:49;9.08;89.55
74940;HTU21D;63505;45.226;37.908;2023-05-09T04:11:15;9.09;89.55
74940;HTU21D;63505;45.226;37.908;2023-05-09T04:13:44;9.08;89.57
74940;HTU21D;63505;45.226;37.908;2023-05-09T04:16:24;9.11;89.60
74940;HTU21D;63505;45.226;37.908;2023-05-09T04:18:50;9.11;89.57
74940;HTU21D;63505;45.226;37.908;2023-05-09T04:21:16;9.11;89.60
74940;HTU21D;63505;45.226;37.908;2023-05-09T04:23:45;9.12;89.60
74940;HTU21D;63505;45.226;37.908;2023-05-09T04:26:12;9.11;89.63
74940;HTU21D;63505;45.226;37.908;2023-05-09T04:28:40;9.12;89.73
74940;HTU21D;63505;45.226;37.908;2023-05-09T04:31:07;9.15;89.72
74940;HTU21D;63505;45.226;37.908;2023-05-09T04:33:34;9.15;89.74
74940;HTU21D;63505;45.226;37.908;2023-05-09T04:36:03;9.18;89.75
74940;HTU21D;63505;45.226;37.908;2023-05-09T04:38:29;9.21;89.76
74940;HTU21D;63505;45.226;37.908;2023-05-09T04:40:55;9.23;89.71
74940;HTU21D;63505;45.226;37.908;2023-05-09T04:43:23;9.27;89.71
74940;HTU21D;63505;45.226;37.908;2023-05-09T04:45:52;9.32;89.65
74940;HTU21D;63505;45.226;37.908;2023-05-09T04:48:18;9.35;89.60
74940;HTU21D;63505;45.226;37.908;2023-05-09T04:50:44;9.35;89.55
74940;HTU21D;63505;45.226;37.908;2023-05-09T04:53:13;9.37;89.54
74940;HTU21D;63505;45.226;37.908;2023-05-09T04:55:40;9.36;89.57
74940;HTU21D;63505;45.226;37.908;2023-05-09T04:58:08;9.38;89.61
74940;HTU21D;63505;45.226;37.908;2023-05-09T05:00:34;9.39;89.65
74940;HTU21D;63505;45.226;37.908;2023-05-09T05:03:01;9.40;89.71
74940;HTU21D;63505;45.226;37.908;2023-05-09T05:05:28;9.45;89.70
74940;HTU21D;63505;45.226;37.908;2023-05-09T05:07:55;9.46;89.73
74940;HTU21D;63505;45.226;37.908;2023-05-09T05:10:25;9.48;89.75
74940;HTU21D;63505;45.226;37.908;2023-05-09T05:13:00;9.49;89.73
74940;HTU21D;63505;45.226;37.908;2023-05-09T05:15:26;9.52;89.73
74940;HTU21D;63505;45.226;37.908;2023-05-09T05:17:52;9.52;89.76
74940;HTU21D;63505;45.226;37.908;2023-05-09T05:20:22;9.54;89.73
74940;HTU21D;63505;45.226;37.908;2023-05-09T05:22:49;9.54;89.74
74940;HTU21D;63505;45.226;37.908;2023-05-09T05:25:15;9.55;89.79
74940;HTU21D;63505;45.226;37.908;2023-05-09T05:27:45;9.61;89.81
74940;HTU21D;63505;45.226;37.908;2023-05-09T05:30:12;9.61;89.73
74940;HTU21D;63505;45.226;37.908;2023-05-09T05:32:40;9.61;89.74
74940;HTU21D;63505;45.226;37.908;2023-05-09T05:35:07;9.61;89.77
74940;HTU21D;63505;45.226;37.908;2023-05-09T05:37:39;9.62;89.80
74940;HTU21D;63505;45.226;37.908;2023-05-09T05:40:06;9.65;89.80
74940;HTU21D;63505;45.226;37.908;2023-05-09T05:42:34;9.66;89.79
74940;HTU21D;63505;45.226;37.908;2023-05-09T05:45:00;9.68;89.79
74940;HTU21D;63505;45.226;37.908;2023-05-09T05:47:35;9.69;89.76
74940;HTU21D;63505;45.226;37.908;2023-05-09T05:50:04;9.71;89.75
74940;HTU21D;63505;45.226;37.908;2023-05-09T05:52:37;9.75;89.75
74940;HTU21D;63505;45.226;37.908;2023-05-09T05:55:03;9.75;89.73
74940;HTU21D;63505;45.226;37.908;2023-05-09T05:57:30;9.75;89.70
74940;HTU21D;63505;45.226;37.908;2023-05-09T05:59:56;9.77;89.69
74940;HTU21D;63505;45.226;37.908;2023-05-09T06:02:22;9.74;89.71
74940;HTU21D;63505;45.226;37.908;2023-05-09T06:04:48;9.76;89.73
74940;HTU21D;63505;45.226;37.908;2023-05-09T06:07:15;9.79;89.72
74940;HTU21D;63505;45.226;37.908;2023-05-09T06:09:40;9.81;89.68
74940;HTU21D;63505;45.226;37.908;2023-05-09T06:12:06;9.85;89.67
74940;HTU21D;63505;45.226;37.908;2023-05-09T06:14:32;9.89;89.61
74940;HTU21D;63505;45.226;37.908;2023-05-09T06:16:59;9.88;89.59
74940;HTU21D;63505;45.226;37.908;2023-05-09T06:19:25;9.81;89.59
74940;HTU21D;63505;45.226;37.908;2023-05-09T06:21:51;9.81;89.64
74940;HTU21D;63505;45.226;37.908;2023-05-09T06:24:17;9.80;89.73
74940;HTU21D;63505;45.226;37.908;2023-05-09T06:26:43;9.82;89.76
74940;HTU21D;63505;45.226;37.908;2023-05-09T06:29:09;9.84;89.79
74940;HTU21D;63505;45.226;37.908;2023-05-09T06:31:35;9.85;89.83
74940;HTU21D;63505;45.226;37.908;2023-05-09T06:34:04;9.92;89.84
74940;HTU21D;63505;45.226;37.908;2023-05-09T06:36:30;9.92;89.79
74940;HTU21D;63505;45.226;37.908;2023-05-09T06:38:57;9.94;89.82
74940;HTU21D;63505;45.226;37.908;2023-05-09T06:41:23;9.98;89.78
74940;HTU21D;63505;45.226;37.908;2023-05-09T06:43:49;10.00;89.79
74940;HTU21D;63505;45.226;37.908;2023-05-09T06:46:15;10.05;89.75
74940;HTU21D;63505;45.226;37.908;2023-05-09T06:48:40;10.09;89.78
74940;HTU21D;63505;45.226;37.908;2023-05-09T06:51:06;10.12;89.76
74940;HTU21D;63505;45.226;37.908;2023-05-09T06:53:32;10.19;89.75
74940;HTU21D;63505;45.226;37.908;2023-05-09T06:55:58;10.23;89.70
74940;HTU21D;63505;45.226;37.908;2023-05-09T06:58:24;10.28;89.66
74940;HTU21D;63505;45.226;37.908;2023-05-09T07:00:52;10.27;89.57
74940;HTU21D;63505;45.226;37.908;2023-05-09T07:03:18;10.26;89.64
74940;HTU21D;63505;45.226;37.908;2023-05-09T07:05:44;10.29;89.68
74940;HTU21D;63505;45.226;37.908;2023-05-09T07:08:10;10.31;89.64
74940;HTU21D;63505;45.226;37.908;2023-05-09T07:10:36;10.31;89.61
74940;HTU21D;63505;45.226;37.908;2023-05-09T07:13:03;10.29;89.60
74940;HTU21D;63505;45.226;37.908;2023-05-09T07:15:29;10.26;89.63
74940;HTU21D;63505;45.226;37.908;2023-05-09T07:17:55;10.26;89.63
74940;HTU21D;63505;45.226;37.908;2023-05-09T07:20:21;10.23;89.60
74940;HTU21D;63505;45.226;37.908;2023-05-09T07:22:47;10.21;89.65
74940;HTU21D;63505;45.226;37.908;2023-05-09T07:25:14;10.18;89.68
74940;HTU21D;63505;45.226;37.908;2023-05-09T07:27:40;10.16;89.73
74940;HTU21D;63505;45.226;37.908;2023-05-09T07:30:06;10.19;89.71
74940;HTU21D;63505;45.226;37.908;2023-05-09T07:32:34;10.19;89.66
74940;HTU21D;63505;45.226;37.908;2023-05-09T07:35:00;10.16;89.63
74940;HTU21D;63505;45.226;37.908;2023-05-09T07:37:26;10.16;89.67
74940;HTU21D;63505;45.226;37.908;2023-05-09T07:39:52;10.13;89.63
74940;HTU21D;63505;45.226;37.908;2023-05-09T07:42:18;10.12;89.63
74940;HTU21D;63505;45.226;37.908;2023-05-09T07:44:44;10.11;89.62
74940;HTU21D;63505;45.226;37.908;2023-05-09T07:47:10;10.10;89.61
74940;HTU21D;63505;45.226;37.908;2023-05-09T07:49:36;10.11;89.63
74940;HTU21D;63505;45.226;37.908;2023-05-09T07:52:02;10.12;89.60
74940;HTU21D;63505;45.226;37.908;2023-05-09T07:54:28;10.15;89.58
74940;HTU21D;63505;45.226;37.908;2023-05-09T07:56:53;10.15;89.52
74940;HTU21D;63505;45.226;37.908;2023-05-09T07:59:19;10.13;89.47
74940;HTU21D;63505;45.226;37.908;2023-05-09T08:01:45;10.11;89.50
74940;HTU21D;63505;45.226;37.908;2023-05-09T08:04:11;10.14;89.51
74940;HTU21D;63505;45.226;37.908;2023-05-09T08:06:37;10.18;89.50
74940;HTU21D;63505;45.226;37.908;2023-05-09T08:09:03;10.22;89.46
74940;HTU21D;63505;45.226;37.908;2023-05-09T08:11:32;10.26;89.38
74940;HTU21D;63505;45.226;37.908;2023-05-09T08:13:59;10.29;89.30
74940;HTU21D;63505;45.226;37.908;2023-05-09T08:16:25;10.31;89.29
74940;HTU21D;63505;45.226;37.908;2023-05-09T08:18:51;10.34;89.28
74940;HTU21D;63505;45.226;37.908;2023-05-09T08:21:17;10.35;89.21
74940;HTU21D;63505;45.226;37.908;2023-05-09T08:23:42;10.35;89.19
74940;HTU21D;63505;45.226;37.908;2023-05-09T08:26:08;10.36;89.18
74940;HTU21D;63505;45.226;37.908;2023-05-09T08:28:34;10.37;89.20
74940;HTU21D;63505;45.226;37.908;2023-05-09T08:31:00;10.38;89.22
74940;HTU21D;63505;45.226;37.908;2023-05-09T08:33:26;10.41;89.21
74940;HTU21D;63505;45.226;37.908;2023-05-09T08:35:52;10.44;89.22
74940;HTU21D;63505;45.226;37.908;2023-05-09T08:38:19;10.49;89.20
74940;HTU21D;63505;45.226;37.908;2023-05-09T08:40:45;10.56;89.15
74940;HTU21D;63505;45.226;37.908;2023-05-09T08:43:12;10.62;89.09
74940;HTU21D;63505;45.226;37.908;2023-05-09T08:45:44;10.64;89.01
74940;HTU21D;63505;45.226;37.908;2023-05-09T08:48:14;10.62;88.99
74940;HTU21D;63505;45.226;37.908;2023-05-09T08:50:40;10.59;89.02
74940;HTU21D;63505;45.226;37.908;2023-05-09T08:53:07;10.59;89.09
74940;HTU21D;63505;45.226;37.908;2023-05-09T08:55:32;10.63;89.06
74940;HTU21D;63505;45.226;37.908;2023-05-09T08:57:59;10.62;89.05
74940;HTU21D;63505;45.226;37.908;2023-05-09T09:00:25;10.62;89.08
74940;HTU21D;63505;45.226;37.908;2023-05-09T09:02:52;10.65;89.11
74940;HTU21D;63505;45.226;37.908;2023-05-09T09:05:18;10.64;89.09
74940;HTU21D;63505;45.226;37.908;2023-05-09T09:07:45;10.66;89.03
74940;HTU21D;63505;45.226;37.908;2023-05-09T09:10:12;10.66;89.00
74940;HTU21D;63505;45.226;37.908;2023-05-09T09:12:38;10.63;89.02
74940;HTU21D;63505;45.226;37.908;2023-05-09T09:15:07;10.64;89.02
74940;HTU21D;63505;45.226;37.908;2023-05-09T09:17:39;10.62;89.02
74940;HTU21D;63505;45.226;37.908;2023-05-09T09:20:09;10.66;89.10
74940;HTU21D;63505;45.226;37.908;2023-05-09T09:22:36;10.68;89.04
74940;HTU21D;63505;45.226;37.908;2023-05-09T09:25:04;10.69;88.99
74940;HTU21D;63505;45.226;37.908;2023-05-09T09:27:31;10.69;89.01
74940;HTU21D;63505;45.226;37.908;2023-05-09T09:30:10;10.70;88.99
74940;HTU21D;63505;45.226;37.908;2023-05-09T09:32:37;10.71;88.96
74940;HTU21D;63505;45.226;37.908;2023-05-09T09:35:07;10.71;88.97
74940;HTU21D;63505;45.226;37.908;2023-05-09T09:37:34;10.74;88.98
74940;HTU21D;63505;45.226;37.908;2023-05-09T09:40:01;10.80;88.93
74940;HTU21D;63505;45.226;37.908;2023-05-09T09:42:42;10.85;88.90
74940;HTU21D;63505;45.226;37.908;2023-05-09T09:45:14;10.92;88.83
74940;HTU21D;63505;45.226;37.908;2023-05-09T09:47:42;10.97;88.78
74940;HTU21D;63505;45.226;37.908;2023-05-09T09:50:18;11.01;88.79
74940;HTU21D;63505;45.226;37.908;2023-05-09T09:52:52;11.08;88.76
74940;HTU21D;63505;45.226;37.908;2023-05-09T09:55:21;11.15;88.73
74940;HTU21D;63505;45.226;37.908;2023-05-09T09:57:47;11.19;88.65
74940;HTU21D;63505;45.226;37.908;2023-05-09T10:00:14;11.25;88.60
74940;HTU21D;63505;45.226;37.908;2023-05-09T10:02:55;11.31;88.54
74940;HTU21D;63505;45.226;37.908;2023-05-09T10:05:28;11.39;88.49
74940;HTU21D;63505;45.226;37.908;2023-05-09T10:08:01;11.43;88.49
74940;HTU21D;63505;45.226;37.908;2023-05-09T10:10:29;11.51;88.40
74940;HTU21D;63505;45.226;37.908;2023-05-09T10:12:58;11.49;88.36
74940;HTU21D;63505;45.226;37.908;2023-05-09T10:15:25;11.54;88.41
74940;HTU21D;63505;45.226;37.908;2023-05-09T10:17:53;11.57;88.39
74940;HTU21D;63505;45.226;37.908;2023-05-09T10:20:21;11.62;88.35
74940;HTU21D;63505;45.226;37.908;2023-05-09T10:22:48;11.66;88.31
74940;HTU21D;63505;45.226;37.908;2023-05-09T10:25:19;11.68;88.35
74940;HTU21D;63505;45.226;37.908;2023-05-09T10:27:46;11.67;88.34
74940;HTU21D;63505;45.226;37.908;2023-05-09T10:30:16;11.69;88.31
74940;HTU21D;63505;45.226;37.908;2023-05-09T10:35:16;11.63;88.34
74940;HTU21D;63505;45.226;37.908;2023-05-09T10:37:44;11.60;88.27
74940;HTU21D;63505;45.226;37.908;2023-05-09T10:40:10;11.56;88.33
74940;HTU21D;63505;45.226;37.908;2023-05-09T10:42:41;11.56;88.35
74940;HTU21D;63505;45.226;37.908;2023-05-09T10:45:11;11.59;88.32
74940;HTU21D;63505;45.226;37.908;2023-05-09T10:47:38;11.57;88.25
74940;HTU21D;63505;45.226;37.908;2023-05-09T10:50:07;11.53;88.22
74940;HTU21D;63505;45.226;37.908;2023-05-09T10:52:33;11.48;88.23
74940;HTU21D;63505;45.226;37.908;2023-05-09T10:55:01;11.46;88.22
74940;HTU21D;63505;45.226;37.908;2023-05-09T10:57:29;11.48;88.31
74940;HTU21D;63505;45.226;37.908;2023-05-09T10:59:57;11.63;88.18
74940;HTU21D;63505;45.226;37.908;2023-05-09T11:02:23;11.69;88.02
74940;HTU21D;63505;45.226;37.908;2023-05-09T11:05:16;11.71;87.87
74940;HTU21D;63505;45.226;37.908;2023-05-09T11:07:43;11.72;87.89
74940;HTU21D;63505;45.226;37.908;2023-05-09T11:10:16;11.77;87.88
74940;HTU21D;63505;45.226;37.908;2023-05-09T11:12:59;11.85;87.80
74940;HTU21D;63505;45.226;37.908;2023-05-09T11:15:25;11.84;87.73
74940;HTU21D;63505;45.226;37.908;2023-05-09T11:18:04;11.77;87.66
74940;HTU21D;63505;45.226;37.908;2023-05-09T11:20:33;11.67;87.72
74940;HTU21D;63505;45.226;37.908;2023-05-09T11:23:00;11.60;87.76
74940;HTU21D;63505;45.226;37.908;2023-05-09T11:25:28;11.53;87.85
74940;HTU21D;63505;45.226;37.908;2023-05-09T11:27:59;11.49;87.95
74940;HTU21D;63505;45.226;37.908;2023-05-09T11:30:38;11.48;87.98
74940;HTU21D;63505;45.226;37.908;2023-05-09T11:33:05;11.47;88.02
74940;HTU21D;63505;45.226;37.908;2023-05-09T11:35:33;11.49;88.02
74940;HTU21D;63505;45.226;37.908;2023-05-09T11:38:04;11.52;87.96
74940;HTU21D;63505;45.226;37.908;2023-05-09T11:40:30;11.51;87.90
74940;HTU21D;63505;45.226;37.908;2023-05-09T11:42:58;11.49;87.90
74940;HTU21D;63505;45.226;37.908;2023-05-09T11:45:27;11.51;87.85
74940;HTU21D;63505;45.226;37.908;2023-05-09T11:47:54;11.42;87.80
74940;HTU21D;63505;45.226;37.908;2023-05-09T11:50:21;11.39;87.83
74940;HTU21D;63505;45.226;37.908;2023-05-09T11:52:48;11.34;87.81
74940;HTU21D;63505;45.226;37.908;2023-05-09T11:55:16;11.31;87.89
74940;HTU21D;63505;45.226;37.908;2023-05-09T11:57:48;11.28;87.84
74940;HTU21D;63505;45.226;37.908;2023-05-09T12:00:15;11.28;87.83
74940;HTU21D;63505;45.226;37.908;2023-05-09T12:02:43;11.29;87.80
74940;HTU21D;63505;45.226;37.908;2023-05-09T12:05:12;11.29;87.73
74940;HTU21D;63505;45.226;37.908;2023-05-09T12:07:39;11.26;87.70
74940;HTU21D;63505;45.226;37.908;2023-05-09T12:10:09;11.26;87.72
74940;HTU21D;63505;45.226;37.908;2023-05-09T12:12:41;11.28;87.71
74940;HTU21D;63505;45.226;37.908;2023-05-09T12:15:08;11.33;87.67
74940;HTU21D;63505;45.226;37.908;2023-05-09T12:17:37;11.34;87.55
74940;HTU21D;63505;45.226;37.908;2023-05-09T12:20:03;11.33;87.56
74940;HTU21D;63505;45.226;37.908;2023-05-09T12:22:32;11.34;87.51
74940;HTU21D;63505;45.226;37.908;2023-05-09T12:25:00;11.36;87.52
74940;HTU21D;63505;45.226;37.908;2023-05-09T12:27:30;11.40;87.49
74940;HTU21D;63505;45.226;37.908;2023-05-09T12:29:58;11.41;87.40
74940;HTU21D;63505;45.226;37.908;2023-05-09T12:32:25;11.40;87.37
74940;HTU21D;63505;45.226;37.908;2023-05-09T12:34:57;11.38;87.36
74940;HTU21D;63505;45.226;37.908;2023-05-09T12:37:23;11.41;87.40
74940;HTU21D;63505;45.226;37.908;2023-05-09T12:40:04;11.41;87.33
74940;HTU21D;63505;45.226;37.908;2023-05-09T12:42:32;11.39;87.29
74940;HTU21D;63505;45.226;37.908;2023-05-09T12:44:59;11.39;87.34
74940;HTU21D;63505;45.226;37.908;2023-05-09T12:47:29;11.40;87.28
74940;HTU21D;63505;45.226;37.908;2023-05-09T12:50:00;11.39;87.28
74940;HTU21D;63505;45.226;37.908;2023-05-09T12:52:33;11.37;87.25
74940;HTU21D;63505;45.226;37.908;2023-05-09T12:55:08;11.36;87.31
74940;HTU21D;63505;45.226;37.908;2023-05-09T12:57:35;11.34;87.30
74940;HTU21D;63505;45.226;37.908;2023-05-09T13:00:02;11.33;87.25
74940;HTU21D;63505;45.226;37.908;2023-05-09T13:02:41;11.31;87.27
74940;HTU21D;63505;45.226;37.908;2023-05-09T13:05:16;11.29;87.27
74940;HTU21D;63505;45.226;37.908;2023-05-09T13:07:48;11.31;87.28
74940;HTU21D;63505;45.226;37.908;2023-05-09T13:10:21;11.39;87.29
74940;HTU21D;63505;45.226;37.908;2023-05-09T13:12:48;11.45;87.22
74940;HTU21D;63505;45.226;37.908;2023-05-09T13:15:17;11.47;87.12
74940;HTU21D;63505;45.226;37.908;2023-05-09T13:17:49;11.51;87.10
74940;HTU21D;63505;45.226;37.908;2023-05-09T13:20:16;11.51;87.03
74940;HTU21D;63505;45.226;37.908;2023-05-09T13:22:42;11.52;87.03
74940;HTU21D;63505;45.226;37.908;2023-05-09T13:25:10;11.54;87.00
74940;HTU21D;63505;45.226;37.908;2023-05-09T13:27:36;11.54;86.97
74940;HTU21D;63505;45.226;37.908;2023-05-09T13:30:03;11.49;86.97
74940;HTU21D;63505;45.226;37.908;2023-05-09T13:32:30;11.48;86.96
74940;HTU21D;63505;45.226;37.908;2023-05-09T13:34:56;11.43;86.96
74940;HTU21D;63505;45.226;37.908;2023-05-09T13:37:22;11.39;87.05
74940;HTU21D;63505;45.226;37.908;2023-05-09T13:39:48;11.38;87.09
74940;HTU21D;63505;45.226;37.908;2023-05-09T13:42:14;11.38;87.13
74940;HTU21D;63505;45.226;37.908;2023-05-09T13:44:40;11.38;87.09
74940;HTU21D;63505;45.226;37.908;2023-05-09T13:47:06;11.37;87.07
74940;HTU21D;63505;45.226;37.908;2023-05-09T13:49:33;11.31;87.09
74940;HTU21D;63505;45.226;37.908;2023-05-09T13:51:59;11.29;87.06
74940;HTU21D;63505;45.226;37.908;2023-05-09T13:54:25;11.26;87.14
74940;HTU21D;63505;45.226;37.908;2023-05-09T13:56:51;11.24;87.15
74940;HTU21D;63505;45.226;37.908;2023-05-09T13:59:18;11.19;87.16
74940;HTU21D;63505;45.226;37.908;2023-05-09T14:01:43;11.17;87.22
74940;HTU21D;63505;45.226;37.908;2023-05-09T14:04:09;11.18;87.19
74940;HTU21D;63505;45.226;37.908;2023-05-09T14:06:35;11.15;87.19
74940;HTU21D;63505;45.226;37.908;2023-05-09T14:09:01;11.14;87.25
74940;HTU21D;63505;45.226;37.908;2023-05-09T14:11:28;11.12;87.21
74940;HTU21D;63505;45.226;37.908;2023-05-09T14:13:54;11.11;87.21
74940;HTU21D;63505;45.226;37.908;2023-05-09T14:16:20;11.08;87.25
74940;HTU21D;63505;45.226;37.908;2023-05-09T14:18:47;11.07;87.25
74940;HTU21D;63505;45.226;37.908;2023-05-09T14:21:13;11.07;87.25
74940;HTU21D;63505;45.226;37.908;2023-05-09T14:23:40;11.07;87.25
74940;HTU21D;63505;45.226;37.908;2023-05-09T14:26:07;11.09;87.25
74940;HTU21D;63505;45.226;37.908;2023-05-09T14:28:33;11.10;87.22
74940;HTU21D;63505;45.226;37.908;2023-05-09T14:30:59;11.10;87.19
74940;HTU21D;63505;45.226;37.908;2023-05-09T14:33:25;11.07;87.19
74940;HTU21D;63505;45.226;37.908;2023-05-09T14:35:52;11.05;87.22
74940;HTU21D;63505;45.226;37.908;2023-05-09T14:38:18;11.03;87.17
74940;HTU21D;63505;45.226;37.908;2023-05-09T14:40:45;10.98;87.18
74940;HTU21D;63505;45.226;37.908;2023-05-09T14:43:11;10.96;87.28
74940;HTU21D;63505;45.226;37.908;2023-05-09T14:45:37;10.92;87.25
74940;HTU21D;63505;45.226;37.908;2023-05-09T14:48:03;10.87;87.36
74940;HTU21D;63505;45.226;37.908;2023-05-09T14:50:30;10.87;87.37
74940;HTU21D;63505;45.226;37.908;2023-05-09T14:52:56;10.88;87.35
74940;HTU21D;63505;45.226;37.908;2023-05-09T14:55:22;10.84;87.34
74940;HTU21D;63505;45.226;37.908;2023-05-09T14:57:48;10.82;87.35
74940;HTU21D;63505;45.226;37.908;2023-05-09T15:00:14;10.79;87.34
74940;HTU21D;63505;45.226;37.908;2023-05-09T15:02:41;10.74;87.37
74940;HTU21D;63505;45.226;37.908;2023-05-09T15:05:07;10.72;87.40
74940;HTU21D;63505;45.226;37.908;2023-05-09T15:07:34;10.71;87.41
74940;HTU21D;63505;45.226;37.908;2023-05-09T15:10:00;10.70;87.39
74940;HTU21D;63505;45.226;37.908;2023-05-09T15:12:28;10.69;87.41
74940;HTU21D;63505;45.226;37.908;2023-05-09T15:14:57;10.67;87.44
74940;HTU21D;63505;45.226;37.908;2023-05-09T15:17:36;10.69;87.44
74940;HTU21D;63505;45.226;37.908;2023-05-09T15:20:02;10.74;87.40
74940;HTU21D;63505;45.226;37.908;2023-05-09T15:22:29;10.78;87.32
74940;HTU21D;63505;45.226;37.908;2023-05-09T15:25:01;10.80;87.31
74940;HTU21D;63505;45.226;37.908;2023-05-09T15:27:28;10.82;87.23
74940;HTU21D;63505;45.226;37.908;2023-05-09T15:29:54;10.82;87.23